Time,TemperatureF,DewpointF,PressureIn,WindDirection,WindDirectionDegrees,WindSpeedMPH,WindSpeedGustMPH,Humidity,HourlyPrecipIn,Conditions,Clouds,dailyrainin,SoftwareType,DateUTC
2013-02-15 00:05:00,34.7,28.0,29.97,South,186,4.0,13.0,77,0.00,,,0.00,weatherlink.com 1.10,2013-02-15 05:05:00,
2013-02-15 00:20:00,35.6,28.0,29.97,SE,134,10.0,16.0,73,0.00,,,0.00,weatherlink.com 1.10,2013-02-15 05:20:00,
2013-02-15 00:35:00,34.7,28.0,29.97,SSW,203,6.0,16.0,77,0.00,,,0.00,weatherlink.com 1.10,2013-02-15 05:35:00,
2013-02-15 00:50:00,34.9,28.0,29.97,NNW,347,5.0,18.0,76,0.00,,,0.00,weatherlink.com 1.10,2013-02-15 05:50:00,
2013-02-15 01:05:00,34.3,28.0,29.97,NE,39,9.0,17.0,79,0.00,,,0.00,weatherlink.com 1.10,2013-02-15 06:05:00,
2013-02-15 01:20:00,33.7,28.0,29.96,East,96,5.0,11.0,80,0.00,,,0.00,weatherlink.com 1.10,2013-02-15 06:20:00,
2013-02-15 01:35:00,33.4,28.0,29.96,SSE,156,14.0,17.0,81,0.00,,,0.00,weatherlink.com 1.10,2013-02-15 06:35:00,
2013-02-15 01:50:00,33.1,29.0,29.97,West,276,6.0,15.0,83,0.00,,,0.00,weatherlink.com 1.10,2013-02-15 06:50:00,
2013-02-15 02:05:00,33.9,28.0,29.96,South,172,12.0,15.0,79,0.00,,,0.00,weatherlink.com 1.10,2013-02-15 07:05:00,
2013-02-15 02:20:00,34.3,28.0,29.97,SW,217,11.0,16.0,77,0.00,,,0.00,weatherlink.com 1.10,2013-02-15 07:20:00,
2013-02-15 02:35:00,35.0,28.0,29.97,North,352,3.0,20.0,75,0.00,,,0.00,weatherlink.com 1.10,2013-02-15 07:35:00,
2013-02-15 02:51:00,33.5,28.0,29.97,South,183,4.0,9.0,80,0.00,,,0.00,weatherlink.com 1.10,2013-02-15 07:51:00,
2013-02-15 03:05:00,33.5,28.0,29.97,SW,228,6.0,9.0,79,0.00,,,0.00,weatherlink.com 1.10,2013-02-15 08:05:00,
2013-02-15 03:20:00,33.5,28.0,29.97,SSW,208,3.0,10.0,79,0.00,,,0.00,weatherlink.com 1.10,2013-02-15 08:20:00,
2013-02-15 03:35:00,32.9,27.0,29.96,SE,140,2.0,5.0,80,0.00,,,0.00,weatherlink.com 1.10,2013-02-15 08:35:00,
2013-02-15 03:50:00,33.3,27.0,29.97,West,278,3.0,4.0,79,0.00,,,0.00,weatherlink.com 1.10,2013-02-15 08:50:00,
2013-02-15 04:05:00,34.1,28.0,29.96,SSE,149,7.0,8.0,78,0.00,,,0.00,weatherlink.com 1.10,2013-02-15 09:05:00,
2013-02-15 04:20:00,34.4,28.0,29.95,SSE,166,13.0,17.0,77,0.00,,,0.00,weatherlink.com 1.10,2013-02-15 09:20:00,
2013-02-15 04:35:00,34.1,28.0,29.95,ESE,121,10.0,14.0,78,0.00,,,0.00,weatherlink.com 1.10,2013-02-15 09:35:00,
2013-02-15 04:50:00,33.2,28.0,29.95,SW,227,4.0,13.0,81,0.00,,,0.00,weatherlink.com 1.10,2013-02-15 09:50:00,
2013-02-15 05:05:00,33.5,28.0,29.96,SW,217,5.0,14.0,80,0.00,,,0.00,weatherlink.com 1.10,2013-02-15 10:05:00,
2013-02-15 05:20:00,33.4,28.0,29.96,NE,45,7.0,8.0,81,0.00,,,0.00,weatherlink.com 1.10,2013-02-15 10:20:00,
2013-02-15 05:35:00,34.2,28.0,29.96,SSE,166,9.0,14.0,77,0.00,,,0.00,weatherlink.com 1.10,2013-02-15 10:35:00,
2013-02-15 05:50:00,34.4,28.0,29.96,South,187,5.0,12.0,77,0.00,,,0.00,weatherlink.com 1.10,2013-02-15 10:50:00,
2013-02-15 06:05:00,33.6,28.0,29.95,SW,217,4.0,6.0,80,0.00,,,0.00,weatherlink.com 1.10,2013-02-15 11:05:00,
2013-02-15 06:20:00,33.5,28.0,29.95,NW,319,4.0,8.0,81,0.00,,,0.00,weatherlink.com 1.10,2013-02-15 11:20:00,
2013-02-15 06:35:00,33.3,28.0,29.95,SSW,197,3.0,10.0,82,0.00,,,0.00,weatherlink.com 1.10,2013-02-15 11:35:00,
2013-02-15 06:50:00,33.4,29.0,29.95,SSW,195,4.0,9.0,82,0.00,,,0.00,weatherlink.com 1.10,2013-02-15 11:50:00,
2013-02-15 07:05:00,33.3,28.0,29.96,South,173,8.0,12.0,82,0.00,,,0.00,weatherlink.com 1.10,2013-02-15 12:05:00,
2013-02-15 07:20:00,33.5,29.0,29.95,SW,228,8.0,14.0,82,0.00,,,0.00,weatherlink.com 1.10,2013-02-15 12:20:00,
2013-02-15 07:35:00,34.0,29.0,29.95,SSW,212,11.0,17.0,81,0.00,,,0.00,weatherlink.com 1.10,2013-02-15 12:35:00,
2013-02-15 07:50:00,34.2,29.0,29.96,South,183,14.0,16.0,81,0.00,,,0.00,weatherlink.com 1.10,2013-02-15 12:50:00,
2013-02-15 08:05:00,34.5,29.0,29.97,NE,51,8.0,16.0,80,0.00,,,0.00,weatherlink.com 1.10,2013-02-15 13:05:00,
2013-02-15 08:20:00,34.9,29.0,29.98,South,173,9.0,10.0,79,0.00,,,0.00,weatherlink.com 1.10,2013-02-15 13:20:00,
2013-02-15 08:35:00,36.2,29.0,29.98,SE,143,4.0,13.0,75,0.00,,,0.00,weatherlink.com 1.10,2013-02-15 13:35:00,
2013-02-15 08:50:00,37.5,30.0,29.98,SSE,160,10.0,15.0,73,0.00,,,0.00,weatherlink.com 1.10,2013-02-15 13:50:00,
2013-02-15 09:05:00,36.9,30.0,29.98,SSE,150,17.0,19.0,75,0.00,,,0.00,weatherlink.com 1.10,2013-02-15 14:05:00,
2013-02-15 09:20:00,36.8,30.0,29.97,South,170,17.0,24.0,75,0.00,,,0.00,weatherlink.com 1.10,2013-02-15 14:20:00,
2013-02-15 09:36:00,36.9,30.0,29.97,SSE,163,14.0,23.0,75,0.00,,,0.00,weatherlink.com 1.10,2013-02-15 14:36:00,
2013-02-15 09:51:00,37.9,30.0,29.97,South,190,14.0,26.0,73,0.00,,,0.00,weatherlink.com 1.10,2013-02-15 14:51:00,
2013-02-15 10:06:00,38.4,30.0,29.97,SSW,197,16.0,23.0,72,0.00,,,0.00,weatherlink.com 1.10,2013-02-15 15:06:00,
2013-02-15 10:21:00,38.7,30.0,29.96,NW,315,7.0,22.0,71,0.00,,,0.00,weatherlink.com 1.10,2013-02-15 15:21:00,
2013-02-15 10:36:00,38.8,30.0,29.96,SW,215,15.0,20.0,72,0.00,,,0.00,weatherlink.com 1.10,2013-02-15 15:36:00,
2013-02-15 10:51:00,39.8,31.0,29.95,SW,217,15.0,19.0,70,0.00,,,0.00,weatherlink.com 1.10,2013-02-15 15:51:00,
2013-02-15 11:06:00,41.3,31.0,29.95,South,177,14.0,21.0,67,0.00,,,0.00,weatherlink.com 1.10,2013-02-15 16:06:00,
2013-02-15 11:21:00,41.9,31.0,29.94,South,180,11.0,25.0,66,0.00,,,0.00,weatherlink.com 1.10,2013-02-15 16:21:00,
2013-02-15 11:36:00,43.6,31.0,29.94,SSE,148,13.0,26.0,62,0.00,,,0.00,weatherlink.com 1.10,2013-02-15 16:36:00,
2013-02-15 11:51:00,45.6,31.0,29.93,SE,137,9.0,28.0,57,0.00,,,0.00,weatherlink.com 1.10,2013-02-15 16:51:00,
2013-02-15 12:06:00,45.6,31.0,29.92,SSW,193,12.0,24.0,58,0.00,,,0.00,weatherlink.com 1.10,2013-02-15 17:06:00,
2013-02-15 12:21:00,46.3,31.0,29.91,South,184,16.0,20.0,55,0.00,,,0.00,weatherlink.com 1.10,2013-02-15 17:21:00,
2013-02-15 12:36:00,46.5,31.0,29.91,SW,217,14.0,18.0,55,0.00,,,0.00,weatherlink.com 1.10,2013-02-15 17:36:00,
2013-02-15 12:51:00,46.9,31.0,29.91,South,180,17.0,26.0,54,0.00,,,0.00,weatherlink.com 1.10,2013-02-15 17:51:00,
2013-02-15 13:06:00,46.0,31.0,29.91,NW,311,6.0,22.0,57,0.00,,,0.00,weatherlink.com 1.10,2013-02-15 18:06:00,
2013-02-15 13:21:00,46.7,32.0,29.91,SW,231,5.0,21.0,56,0.00,,,0.00,weatherlink.com 1.10,2013-02-15 18:21:00,
2013-02-15 13:36:00,46.6,31.0,29.91,South,191,6.0,16.0,56,0.00,,,0.00,weatherlink.com 1.10,2013-02-15 18:36:00,
2013-02-15 13:51:00,47.7,32.0,29.90,South,170,9.0,17.0,54,0.00,,,0.00,weatherlink.com 1.10,2013-02-15 18:51:00,
2013-02-15 14:06:00,48.4,31.0,29.90,SSE,167,15.0,18.0,52,0.00,,,0.00,weatherlink.com 1.10,2013-02-15 19:06:00,
2013-02-15 14:21:00,48.0,31.0,29.90,South,173,15.0,17.0,53,0.00,,,0.00,weatherlink.com 1.10,2013-02-15 19:21:00,
2013-02-15 14:36:00,48.3,31.0,29.89,South,170,14.0,20.0,52,0.00,,,0.00,weatherlink.com 1.10,2013-02-15 19:36:00,
2013-02-15 14:51:00,48.8,31.0,29.89,South,187,16.0,21.0,51,0.00,,,0.00,weatherlink.com 1.10,2013-02-15 19:51:00,
2013-02-15 15:06:00,48.6,31.0,29.89,ESE,113,8.0,19.0,51,0.00,,,0.00,weatherlink.com 1.10,2013-02-15 20:06:00,
2013-02-15 15:21:00,48.8,31.0,29.89,SSE,162,15.0,18.0,50,0.00,,,0.00,weatherlink.com 1.10,2013-02-15 20:21:00,
2013-02-15 15:36:00,47.8,31.0,29.89,SSW,211,6.0,14.0,53,0.00,,,0.00,weatherlink.com 1.10,2013-02-15 20:36:00,
2013-02-15 15:51:00,46.1,31.0,29.90,SW,224,4.0,10.0,57,0.00,,,0.00,weatherlink.com 1.10,2013-02-15 20:51:00,
2013-02-15 16:06:00,46.5,31.0,29.90,South,179,3.0,7.0,55,0.00,,,0.00,weatherlink.com 1.10,2013-02-15 21:06:00,
2013-02-15 16:22:00,49.0,29.0,29.90,West,263,4.0,8.0,46,0.00,,,0.00,weatherlink.com 1.10,2013-02-15 21:22:00,
2013-02-15 16:37:00,50.5,27.0,29.91,WNW,295,5.0,9.0,41,0.00,,,0.00,weatherlink.com 1.10,2013-02-15 21:37:00,
2013-02-15 16:52:00,49.6,29.0,29.92,NW,321,10.0,11.0,46,0.00,,,0.00,weatherlink.com 1.10,2013-02-15 21:52:00,
2013-02-15 17:07:00,48.2,29.0,29.93,North,1,12.0,13.0,48,0.00,,,0.00,weatherlink.com 1.10,2013-02-15 22:07:00,
2013-02-15 17:22:00,46.8,29.0,29.93,North,349,5.0,11.0,51,0.00,,,0.00,weatherlink.com 1.10,2013-02-15 22:22:00,
2013-02-15 17:38:00,44.2,30.0,29.93,NNE,29,6.0,6.0,57,0.00,,,0.00,weatherlink.com 1.10,2013-02-15 22:38:00,
2013-02-15 17:52:00,45.1,28.0,29.94,ENE,70,4.0,5.0,52,0.00,,,0.00,weatherlink.com 1.10,2013-02-15 22:52:00,
2013-02-15 18:07:00,46.4,28.0,29.94,NE,34,4.0,9.0,49,0.00,,,0.00,weatherlink.com 1.10,2013-02-15 23:07:00,
2013-02-15 18:22:00,41.9,29.0,29.95,North,358,12.0,13.0,60,0.00,,,0.00,weatherlink.com 1.10,2013-02-15 23:22:00,
2013-02-15 18:37:00,42.3,29.0,29.95,North,354,8.0,12.0,59,0.00,,,0.00,weatherlink.com 1.10,2013-02-15 23:37:00,
2013-02-15 18:52:00,42.5,28.0,29.95,North,349,6.0,8.0,56,0.00,,,0.00,weatherlink.com 1.10,2013-02-15 23:52:00,
2013-02-15 19:07:00,41.1,28.0,29.95,NNW,347,7.0,9.0,60,0.00,,,0.00,weatherlink.com 1.10,2013-02-16 00:07:00,
2013-02-15 19:22:00,40.8,28.0,29.96,North,1,8.0,8.0,60,0.00,,,0.00,weatherlink.com 1.10,2013-02-16 00:22:00,
2013-02-15 19:37:00,40.7,28.0,29.95,North,5,6.0,8.0,60,0.00,,,0.00,weatherlink.com 1.10,2013-02-16 00:37:00,
2013-02-15 19:52:00,40.1,27.0,29.95,North,354,8.0,10.0,59,0.00,,,0.00,weatherlink.com 1.10,2013-02-16 00:52:00,
2013-02-15 20:07:00,39.6,27.0,29.96,NNW,342,9.0,10.0,61,0.00,,,0.00,weatherlink.com 1.10,2013-02-16 01:07:00,
2013-02-15 20:22:00,39.9,27.0,29.96,NNE,16,9.0,9.0,60,0.00,,,0.00,weatherlink.com 1.10,2013-02-16 01:22:00,
2013-02-15 20:37:00,40.3,26.0,29.97,North,6,7.0,8.0,57,0.00,,,0.00,weatherlink.com 1.10,2013-02-16 01:37:00,
2013-02-15 20:52:00,39.3,26.0,29.96,North,355,7.0,7.0,60,0.00,,,0.00,weatherlink.com 1.10,2013-02-16 01:52:00,
2013-02-15 21:07:00,39.2,26.0,29.97,North,353,8.0,8.0,60,0.00,,,0.00,weatherlink.com 1.10,2013-02-16 02:07:00,
2013-02-15 21:22:00,39.3,26.0,29.98,North,11,8.0,9.0,59,0.00,,,0.00,weatherlink.com 1.10,2013-02-16 02:22:00,
2013-02-15 21:37:00,38.6,26.0,29.97,North,1,9.0,9.0,62,0.00,,,0.00,weatherlink.com 1.10,2013-02-16 02:37:00,
2013-02-15 21:52:00,38.0,27.0,29.97,NNE,23,9.0,10.0,64,0.00,,,0.00,weatherlink.com 1.10,2013-02-16 02:52:00,
2013-02-15 22:07:00,39.0,26.0,29.97,NNE,27,15.0,17.0,59,0.00,,,0.00,weatherlink.com 1.10,2013-02-16 03:07:00,
2013-02-15 22:22:00,38.9,26.0,29.98,NNE,18,16.0,18.0,60,0.00,,,0.00,weatherlink.com 1.10,2013-02-16 03:22:00,
2013-02-15 22:37:00,38.3,27.0,29.99,North,353,18.0,19.0,63,0.00,,,0.00,weatherlink.com 1.10,2013-02-16 03:37:00,
2013-02-15 22:52:00,38.0,26.0,29.99,NNE,16,19.0,20.0,63,0.00,,,0.00,weatherlink.com 1.10,2013-02-16 03:52:00,
2013-02-15 23:07:00,37.7,26.0,30.00,NNE,12,14.0,17.0,64,0.00,,,0.00,weatherlink.com 1.10,2013-02-16 04:07:00,
2013-02-15 23:22:00,37.0,28.0,30.01,North,354,18.0,22.0,69,0.00,,,0.00,weatherlink.com 1.10,2013-02-16 04:22:00,
2013-02-15 23:37:00,35.4,30.0,30.02,NNW,345,17.0,21.0,79,0.00,,,0.00,weatherlink.com 1.10,2013-02-16 04:37:00,
2013-02-15 23:52:00,33.3,30.0,30.02,NNE,18,16.0,17.0,88,0.00,,,0.00,weatherlink.com 1.10,2013-02-16 04:52:00,